Brown, Tracy
United StatesWomanBorn 19612007 – 2026Runner id 76544
Events
87
2007 – 2026
Best pace
10.113
km/h · 2007
Best finish
17th
of 62 · 2007
Distance raced
6,055
km · splits not double-counted
Pace over time
km/h · higher is faster
Pace over time: 87 races from 2007 to 2026, ranging from 2.05 to 10.76 kilometres per hour, where higher is faster. A second, age-graded series is drawn above it; the gap between the two is the age credit.
- Actual pace
- Age-graded pace
Results
| Date | Event | Distance | Result | Pace km/h | Placing |
|---|---|---|---|---|---|
| 2007-06-09 | Lake Youngs UltraUnited States | 28.8mi | 4:35:00 h | 10.113 | 17/62 |
| 2007-10-06 | Endurance Challenge - Washington D.C. Trail 50 kmUnited States | 50km | 7:18:15 h | 6.845 | 44/75 |
| 2008-06-14 | Lake Youngs UltraUnited States | 28.8mi | 6:01:44 h | 7.688 | 77/95 |
| 2008-07-26 | 50mi | 13:14:56 h | 6.074 | 197/202 | |
| 2008-10-19 | 50km | 6:28:00 h | 7.732 | 10/19 | |
| 2009-03-15 | Fishline 50K RunUnited States | 55km | 8:56:00 h | 6.157 | 2/3 |
| 2009-05-16 | Watershed Preserve 12 Hr Trail RaceUnited States | 12h | 81.336 km | 6.778 | 30/66 |
| 2009-06-20 | Lost Lake 50kUnited States | 50km | 8:37:42 h | 5.795 | 12/22 |
| 2009-07-25 | 50mi | 12:56:29 h | 6.218 | 159/166 | |
| 2009-09-06 | 50km | 6:58:54 h | 7.162 | 12/16 | |
| 2009-09-20 | Big DabrowskiUnited States | 50km | 8:53:00 h | 5.629 | 16/21 |
| 2009-10-31 | 12h | 65.226 km | 5.436 | 12/33 | |
| 2010-01-23 | Pigtails Run 50KUnited States | 50km | 5:18:14 h | 9.427 | 29/80 |
| 2010-02-06 | 50km | 7:33:12 h | 6.620 | 96/123 | |
| 2010-02-14 | 50km | 7:09:00 h | 6.993 | 15/20 | |
| 2010-03-07 | Lord Hill Trail RunUnited States | 50km | 6:52:30 h | 7.273 | 13/21 |
| 2010-04-09 | 50mi | 11:57:00 h | 6.734 | 20/26 | |
| 2010-05-08 | 50km | 8:20:08 h | 5.998 | 29/39 | |
| 2010-05-15 | 12h | 81.336 km | 6.778 | 35/80 | |
| 2010-06-26 | 50km | 6:30:55 h | 7.674 | 30/40 | |
| 2010-07-23 | 100km | 29:55:09 h | 3.342 | 15/17 | |
| 2010-10-02 | Baker Lake 50K Ultra Trail RunUnited States | 50km | 7:02:00 h | 7.109 | 72/115 |
| 2010-10-30 | 12h | 46.590 km | 3.883 | 23/25 | |
| 2011-02-05 | 50km | 7:54:56 h | 6.317 | 84/129 | |
| 2011-02-13 | 50km | 6:32:00 h | 7.653 | 12/15 | |
| 2011-03-11 | 50km | 8:04:54 h | 6.187 | 105/125 | |
| 2011-04-16 | 100km | 16:04:00 h | 6.224 | 6/14 | |
| 2011-04-30 | 50mi | 11:42:19 h | 6.874 | 74/82 | |
| 2011-05-07 | 50km | 8:57:40 h | 5.580 | 40/47 | |
| 2011-05-14 | 12h | 51.901 km | 4.325 | 58/68 | |
| 2011-06-12 | 50km | 8:48:37 h | 5.675 | 65/70 | |
| 2011-07-30 | 50mi | 12:46:09 h | 6.302 | 219/244 | |
| 2011-08-27 | 100mi | 30:54:32 h | 5.207 | 99/106 | |
| 2011-09-24 | 50km | 6:10:00 h | 8.108 | 12/17 | |
| 2011-10-01 | 50km | 6:53:18 h | 7.259 | 67/122 | |
| 2011-10-15 | 50km | 6:13:01 h | 8.043 | 70/112 | |
| 2011-10-30 | Cougar Mountain Trail RunUnited States | 50km | 7:50:44 h | 6.373 | 34/56 |
| 2011-12-10 | 50km | 6:49:36 h | 7.324 | 51/63 | |
| 2012-02-04 | 50km | 7:41:05 h | 6.506 | 128/171 | |
| 2012-02-26 | Lord Hill Trail RunUnited States | 50km | 8:52:17 h | 5.636 | 54/55 |
| 2012-03-25 | 50km | 6:09:19 h | 8.123 | 122/211 | |
| 2012-04-21 | 100mi | 27:23:00 h | 5.877 | 12/17 | |
| 2012-05-12 | 50km | 8:30:19 h | 5.879 | 36/48 | |
| 2012-07-01 | 50km | 6:41:25 h | 7.474 | 7/20 | |
| 2012-07-28 | 50mi | 11:53:33 h | 6.766 | 227/275 | |
| 2012-08-25 | 100mi | 31:00:58 h | 5.189 | 82/98 | |
| 2012-09-22 | 50km | 6:51:15 h | 7.295 | 20/42 | |
| 2012-10-28 | Cougar Mountain Trail RunUnited States | 50km | 7:48:45 h | 6.400 | 54/59 |
| 2013-02-02 | 50km | 7:50:38 h | 6.374 | 171/215 | |
| 2013-02-10 | Fishline 50K RunUnited States | 50km | 7:03:00 h | 7.092 | 13/17 |
Showing 1–50 of 87